createdAt,value
2023-03-26T00:04:10.600Z,0.0
2023-03-26T00:10:31.225Z,0.0
2023-03-26T00:16:54.370Z,0.0
2023-03-26T00:24:11.308Z,0.0
2023-03-26T00:30:31.068Z,0.0
2023-03-26T00:36:51.209Z,0.0
2023-03-26T00:43:13.866Z,0.0
2023-03-26T00:49:33.648Z,0.0
2023-03-26T00:55:54.288Z,0.0
2023-03-26T01:02:15.498Z,0.0
2023-03-26T01:08:36.215Z,0.0
2023-03-26T01:14:56.958Z,0.0
2023-03-26T01:21:17.473Z,0.0
2023-03-26T01:27:38.589Z,0.0
2023-03-26T01:33:58.334Z,0.0
2023-03-26T01:40:19.823Z,0.0
2023-03-26T01:46:40.897Z,0.0
2023-03-26T01:53:02.934Z,0.0
2023-03-26T01:59:23.351Z,0.0
2023-03-26T02:05:42.163Z,0.0
2023-03-26T02:12:02.930Z,0.0
2023-03-26T02:19:55.071Z,0.0
2023-03-26T02:26:16.085Z,0.0
2023-03-26T02:32:37.313Z,0.0
2023-03-26T02:38:57.368Z,0.0
2023-03-26T02:46:03.811Z,0.0
2023-03-26T02:52:24.940Z,0.0
2023-03-26T02:58:45.871Z,0.0
2023-03-26T03:09:28.957Z,0.0
2023-03-26T03:15:48.886Z,0.0
2023-03-26T03:22:08.310Z,0.0
2023-03-26T03:28:30.296Z,0.0
2023-03-26T03:34:51.451Z,0.0
2023-03-26T03:46:44.597Z,0.0
2023-03-26T03:53:06.319Z,0.0
2023-03-26T03:59:29.173Z,0.0
2023-03-26T04:05:49.343Z,0.0
2023-03-26T04:13:05.799Z,0.0
2023-03-26T04:19:26.476Z,0.0
2023-03-26T04:25:46.934Z,0.0
2023-03-26T04:32:07.060Z,0.0
2023-03-26T04:39:18.884Z,0.0
2023-03-26T04:45:38.343Z,0.0
2023-03-26T04:51:57.940Z,0.0
2023-03-26T04:58:18.180Z,0.0
2023-03-26T05:09:31.592Z,0.0
2023-03-26T05:15:52.181Z,0.0
2023-03-26T05:22:14.574Z,0.0
2023-03-26T05:28:33.988Z,0.0
2023-03-26T05:34:55.341Z,1.033177257525084
2023-03-26T05:41:17.521Z,3.6069565217391304
2023-03-26T05:47:41.951Z,5.237525083612039
2023-03-26T05:54:07.825Z,7.373612040133784
2023-03-26T06:00:32.251Z,8.624648829431445
2023-03-26T06:08:29.484Z,8.5951839464883
2023-03-26T06:14:52.993Z,10.231337792642131
2023-03-26T06:27:40.382Z,18.889832775919714
2023-03-26T06:40:16.032Z,23.68953177257524
2023-03-26T06:46:41.061Z,23.03013377926421
2023-03-26T06:57:03.438Z,24.579331103678943
2023-03-26T07:04:14.384Z,25.997491638795992
2023-03-26T07:10:37.070Z,25.226387959866223
2023-03-26T07:32:27.564Z,38.37558528428097
2023-03-26T07:38:50.695Z,37.01494983277593
2023-03-26T07:45:38.015Z,31.293177257525095
2023-03-26T07:51:59.294Z,30.48695652173913
2023-03-26T07:58:20.669Z,32.437558528428085
2023-03-26T08:04:41.980Z,41.02745819397993
2023-03-26T08:12:28.943Z,49.5830769230769
2023-03-26T08:23:50.681Z,66.34929765886284
2023-03-26T08:32:07.718Z,76.80886287625415
2023-03-26T08:38:29.348Z,78.38230769230769
2023-03-26T08:44:50.268Z,84.1565217391304
2023-03-26T08:53:56.421Z,76.7379933110368
2023-03-26T09:00:28.696Z,89.57267558528426
2023-03-26T09:06:52.192Z,95.65662207357862
2023-03-26T09:16:24.355Z,107.81193979933106
2023-03-26T09:22:46.221Z,95.1009364548495
2023-03-26T09:29:11.923Z,104.55247491638802
2023-03-26T09:40:20.131Z,88.22498327759195
2023-03-26T09:46:46.192Z,93.60334448160538
2023-03-26T09:53:07.779Z,82.46113712374583
2023-03-26T09:59:28.639Z,98.21063545150498
2023-03-26T10:05:50.060Z,104.02668896321073
2023-03-26T10:12:10.981Z,116.584381270903
2023-03-26T10:18:32.016Z,107.61030100334443
2023-03-26T10:24:53.145Z,123.61969899665543
2023-03-26T10:31:15.016Z,120.74297658862876
2023-03-26T10:37:36.337Z,111.71494983277593
2023-03-26T10:44:07.273Z,147.61451505016723
2023-03-26T10:54:24.929Z,143.19882943143816
2023-03-26T11:01:16.180Z,162.17859531772575
2023-03-26T11:07:37.982Z,179.93685618729094
2023-03-26T11:13:59.495Z,218.56484949832793
2023-03-26T11:20:21.231Z,169.7265217391304
2023-03-26T11:26:43.282Z,176.07605351170582
2023-03-26T11:34:05.349Z,151.31491638795987
2023-03-26T11:41:59.875Z,178.96505016722392
2023-03-26T11:48:21.480Z,182.42836120401333
2023-03-26T11:54:43.185Z,203.09899665551816
2023-03-26T12:01:06.182Z,243.94130434782613
2023-03-26T12:07:27.526Z,347.14428093645535
2023-03-26T12:13:49.030Z,501.73809364548447
2023-03-26T12:20:10.331Z,352.7119397993312
2023-03-26T12:31:34.880Z,200.60227424749183
2023-03-26T12:37:56.033Z,293.6026421404682
2023-03-26T12:44:47.303Z,519.46347826087
2023-03-26T12:51:18.634Z,397.7452508361206
2023-03-26T13:04:19.166Z,220.02488294314367
2023-03-26T13:10:40.746Z,157.21133779264204
2023-03-26T13:17:02.195Z,107.53250836120398
2023-03-26T13:25:27.749Z,297.14204013377963
2023-03-26T13:31:49.372Z,355.4843812709028
2023-03-26T13:38:10.778Z,255.08197324414718
2023-03-26T13:44:32.351Z,193.47137123745813
2023-03-26T13:55:28.227Z,121.96347826086959
2023-03-26T14:02:53.262Z,163.10354515050162
2023-03-26T14:09:15.018Z,150.10240802675574
2023-03-26T14:18:00.723Z,119.32976588628759
2023-03-26T14:24:22.086Z,150.10033444816077
2023-03-26T14:30:44.044Z,81.36458193979927
2023-03-26T14:37:05.617Z,58.73240802675585
2023-03-26T14:43:27.299Z,91.89190635451506
2023-03-26T14:49:48.489Z,127.18916387959868
2023-03-26T14:56:10.020Z,116.04505016722406
2023-03-26T15:02:31.930Z,111.98859531772571
2023-03-26T15:08:53.512Z,87.52508361204009
2023-03-26T15:15:15.147Z,63.98193979933105
2023-03-26T15:27:40.389Z,83.86622073578593
2023-03-26T15:34:02.535Z,68.1759531772575
2023-03-26T15:40:23.880Z,51.6837123745819
2023-03-26T16:03:27.116Z,30.444448160535096
2023-03-26T16:09:48.032Z,25.578060200668894
2023-03-26T16:16:09.041Z,22.493110367892967
2023-03-26T16:22:30.249Z,19.28879598662207
2023-03-26T16:28:51.111Z,18.530735785953183
2023-03-26T16:35:12.456Z,21.44585284280937
2023-03-26T16:46:33.437Z,19.3679933110368
2023-03-26T16:52:54.481Z,18.60996655518395
2023-03-26T16:59:15.908Z,17.30351170568563
2023-03-26T17:05:37.574Z,12.563177257525089
2023-03-26T17:12:00.556Z,8.49842809364549
2023-03-26T17:18:25.217Z,6.4062207357859595
2023-03-26T17:30:33.885Z,4.512140468227421
2023-03-26T17:36:55.614Z,3.039632107023411
2023-03-26T17:44:21.632Z,0.7989297658862874
2023-03-26T17:50:40.986Z,0.0
2023-03-26T17:57:03.050Z,0.0
2023-03-26T18:03:23.887Z,0.0
2023-03-26T18:09:42.962Z,0.0
2023-03-26T18:22:16.842Z,0.0
2023-03-26T18:28:40.063Z,0.0
2023-03-26T18:35:00.781Z,0.0
2023-03-26T18:41:21.295Z,0.0
2023-03-26T18:47:41.709Z,0.0
2023-03-26T18:54:02.373Z,0.0
2023-03-26T19:05:30.386Z,0.0
2023-03-26T19:11:50.714Z,0.0
2023-03-26T19:18:11.772Z,0.0
2023-03-26T19:24:32.016Z,0.0
2023-03-26T19:30:54.344Z,0.0
2023-03-26T19:37:14.297Z,0.0
2023-03-26T19:43:34.291Z,0.0
2023-03-26T19:49:53.700Z,0.0
2023-03-26T19:59:17.573Z,0.0
2023-03-26T20:07:48.430Z,0.0
2023-03-26T20:14:07.014Z,0.0
2023-03-26T20:20:27.013Z,0.0
2023-03-26T20:28:47.470Z,0.0
2023-03-26T20:35:08.241Z,0.0
2023-03-26T20:41:29.238Z,0.0
2023-03-26T20:49:27.010Z,0.0
2023-03-26T21:05:08.257Z,0.0
2023-03-26T21:14:42.498Z,0.0
2023-03-26T21:21:14.099Z,0.0
2023-03-26T21:27:41.291Z,0.0
2023-03-26T21:34:00.010Z,0.0
2023-03-26T21:42:49.661Z,0.0
2023-03-26T21:58:39.389Z,0.0
2023-03-26T22:04:58.297Z,0.0
2023-03-26T22:11:17.217Z,0.0
2023-03-26T22:21:17.244Z,0.0
2023-03-26T22:27:44.138Z,0.0
2023-03-26T22:34:04.259Z,0.0
2023-03-26T22:40:22.855Z,0.0
2023-03-26T22:50:15.375Z,0.0
2023-03-26T22:56:35.729Z,0.0
2023-03-26T23:07:15.444Z,0.0
2023-03-26T23:13:35.646Z,0.0
2023-03-26T23:19:54.360Z,0.0
2023-03-26T23:26:13.034Z,0.0
2023-03-26T23:33:16.762Z,0.0
2023-03-26T23:43:00.688Z,0.0
2023-03-26T23:54:41.174Z,0.0
